Terminal Aerodrome Forecast
Issued by NWS Jacksonville, FL

Home | Current Version | Previous Version | Text Only | Print | Product List | Glossary On
Versions: 1 2 3 4 5 6 7 8 9 10 11 12 13 14
000
FTUS42 KJAX 272320
TAFGNV
TAF
KGNV 272320Z 2800/2824 06005KT P6SM VCSH BKN050
     FM280300 VRB03KT P6SM FEW040 BKN250
     FM281500 09008KT P6SM VCSH BKN050
     FM281800 07010KT P6SM VCTS FEW050CB PROB30 2818/2824 5SM TS
      BKN050CB=

USA.gov is the U.S. government's official web portal to all federal, state and local government web resources and services.